Time;durP1;ratioP1;P1;durP2;ratioP2;P2;SDS_P1;SDS_P2;PMS_P1;PMS_P2;Temp;Humidity;BMP_temperature;BMP_pressure;BME280_temperature;BME280_humidity;BME280_pressure;Samples;Min_cycle;Max_cycle;Signal;HPM_P1;HPM_P2
2022/07/23 00:01:38;;;;;;;11.83;11.03;;;26.00;77.00;;;;;;6268002;28;20211;-64
2022/07/23 00:04:41;;;;;;;11.27;10.47;;;25.80;77.30;;;;;;6277280;28;20206;-64
2022/07/23 00:07:44;;;;;;;12.20;11.40;;;25.90;77.70;;;;;;6277367;28;20302;-64
2022/07/23 00:10:48;;;;;;;11.87;11.07;;;25.80;77.70;;;;;;6276880;28;20241;-64
2022/07/23 00:13:54;;;;;;;12.30;11.30;;;25.80;78.20;;;;;;6277132;28;20223;-64
2022/07/23 00:16:57;;;;;;;13.53;12.47;;;25.70;78.30;;;;;;6276929;28;20231;-64
2022/07/23 00:20:01;;;;;;;12.30;11.30;;;25.70;78.50;;;;;;6276346;28;20242;-64
2022/07/23 00:23:04;;;;;;;13.60;12.27;;;25.70;78.70;;;;;;6277074;28;20238;-64
2022/07/23 00:26:07;;;;;;;12.53;11.63;;;25.60;78.80;;;;;;6276627;28;20237;-64
2022/07/23 00:29:12;;;;;;;12.27;11.27;;;25.60;79.10;;;;;;6276363;28;20284;-64
2022/07/23 00:32:16;;;;;;;13.73;12.63;;;25.60;79.30;;;;;;6268392;28;20228;-64
2022/07/23 00:35:41;;;;;;;11.53;10.63;;;25.50;79.20;;;;;;6264484;28;20227;-64
2022/07/23 00:38:44;;;;;;;11.77;10.60;;;25.50;79.40;;;;;;6275514;28;20570;-64
2022/07/23 00:41:47;;;;;;;11.73;10.93;;;25.60;79.50;;;;;;6255158;28;20231;-64
2022/07/23 00:44:51;;;;;;;11.23;10.33;;;25.50;79.50;;;;;;6251974;28;20216;-64
2022/07/23 00:47:55;;;;;;;10.77;9.97;;;25.50;79.60;;;;;;6258047;28;20230;-64
2022/07/23 00:50:58;;;;;;;12.17;11.07;;;25.40;79.80;;;;;;6252052;28;20228;-64
2022/07/23 00:54:01;;;;;;;12.20;11.40;;;25.40;80.10;;;;;;6264349;28;20687;-64
2022/07/23 00:57:04;;;;;;;11.87;10.97;;;25.30;80.00;;;;;;6263000;28;20228;-64
2022/07/23 01:00:12;;;;;;;12.33;11.33;;;25.30;80.20;;;;;;6261877;28;20234;-64
2022/07/23 01:03:15;;;;;;;12.43;11.53;;;25.20;80.70;;;;;;6249310;28;20796;-64
2022/07/23 01:06:19;;;;;;;12.13;11.27;;;25.20;81.40;;;;;;6246644;28;20666;-64
2022/07/23 01:09:22;;;;;;;12.17;11.20;;;25.20;81.70;;;;;;6250704;28;20228;-64
2022/07/23 01:12:25;;;;;;;13.00;12.03;;;25.10;82.00;;;;;;6250781;28;20231;-64
2022/07/23 01:15:30;;;;;;;13.30;12.20;;;25.20;82.40;;;;;;6250473;28;20231;-64
2022/07/23 01:18:33;;;;;;;13.53;12.50;;;25.10;82.40;;;;;;6250200;28;20642;-64
2022/07/23 01:21:38;;;;;;;13.07;12.17;;;25.10;82.60;;;;;;6250810;28;20239;-64
2022/07/23 01:24:42;;;;;;;13.23;12.23;;;25.20;82.70;;;;;;6250871;28;20234;-64
2022/07/23 01:27:46;;;;;;;14.70;13.50;;;25.20;82.70;;;;;;6250533;28;20228;-64
2022/07/23 01:30:49;;;;;;;14.27;13.17;;;25.20;82.90;;;;;;6250219;28;20318;-64
2022/07/23 01:33:52;;;;;;;14.67;13.60;;;25.20;83.10;;;;;;6250423;28;20253;-64
2022/07/23 01:36:55;;;;;;;14.70;13.50;;;25.20;83.10;;;;;;6250039;28;20227;-64
2022/07/23 01:40:00;;;;;;;15.10;13.80;;;25.20;83.10;;;;;;6250085;28;20243;-64
2022/07/23 01:43:05;;;;;;;14.73;13.53;;;25.20;83.10;;;;;;6249408;28;20228;-64
2022/07/23 01:46:09;;;;;;;13.77;12.50;;;25.20;83.30;;;;;;6250031;28;20686;-64
2022/07/23 01:49:12;;;;;;;13.90;12.70;;;25.10;83.50;;;;;;6249622;28;20247;-64
2022/07/23 01:52:16;;;;;;;13.70;12.60;;;25.10;83.50;;;;;;6249683;28;20235;-64
2022/07/23 01:55:20;;;;;;;13.10;12.10;;;25.10;83.40;;;;;;6249664;28;20239;-64
2022/07/23 01:58:23;;;;;;;12.20;11.20;;;25.10;83.60;;;;;;6248749;28;20262;-64
2022/07/23 02:01:27;;;;;;;13.40;11.07;;;25.10;83.50;;;;;;6250219;28;20214;-64
2022/07/23 02:04:30;;;;;;;12.00;11.10;;;25.00;83.40;;;;;;6249618;28;20214;-64
2022/07/23 02:07:33;;;;;;;13.70;12.60;;;25.00;83.40;;;;;;6249593;28;20208;-64
2022/07/23 02:10:38;;;;;;;13.10;12.20;;;25.00;83.50;;;;;;6245036;28;20239;-64
2022/07/23 02:13:42;;;;;;;12.93;11.87;;;24.90;83.70;;;;;;6249803;28;20211;-65
2022/07/23 02:16:45;;;;;;;11.77;10.80;;;24.80;83.70;;;;;;6249673;28;20242;-65
2022/07/23 02:19:48;;;;;;;12.93;11.93;;;24.80;84.00;;;;;;6249279;28;20342;-65
2022/07/23 02:22:51;;;;;;;11.80;10.80;;;24.80;84.00;;;;;;6249585;28;20687;-65
2022/07/23 02:25:56;;;;;;;12.23;11.30;;;24.80;84.10;;;;;;6249894;28;20285;-65
2022/07/23 02:28:59;;;;;;;11.20;10.30;;;24.70;84.90;;;;;;6249566;28;20243;-65
2022/07/23 02:32:02;;;;;;;12.23;11.20;;;24.60;85.00;;;;;;6249652;28;20580;-65
2022/07/23 02:35:07;;;;;;;12.70;11.70;;;24.60;84.80;;;;;;6249560;28;20226;-65
2022/07/23 02:38:10;;;;;;;13.17;11.87;;;24.60;85.20;;;;;;6249468;28;20693;-65
2022/07/23 02:41:14;;;;;;;12.60;11.50;;;24.60;85.40;;;;;;6249566;28;20227;-65
2022/07/23 02:44:17;;;;;;;12.53;11.53;;;24.60;85.50;;;;;;6249362;28;20224;-65
2022/07/23 02:47:20;;;;;;;13.83;12.73;;;24.50;85.60;;;;;;6249527;28;20228;-65
2022/07/23 02:50:24;;;;;;;13.00;12.00;;;24.50;85.90;;;;;;6249167;28;20236;-65
2022/07/23 02:53:27;;;;;;;13.90;12.70;;;24.50;86.30;;;;;;6251860;28;20228;-65
2022/07/23 02:56:32;;;;;;;12.93;11.87;;;24.50;86.20;;;;;;6254174;28;20523;-65
2022/07/23 02:59:35;;;;;;;13.77;12.77;;;24.40;86.50;;;;;;6253993;28;20235;-64
2022/07/23 03:02:38;;;;;;;14.73;13.63;;;24.40;87.00;;;;;;6253544;28;20228;-64
2022/07/23 03:05:41;;;;;;;15.93;14.63;;;24.40;87.10;;;;;;6253743;28;20232;-65
2022/07/23 03:08:44;;;;;;;12.60;11.67;;;24.40;87.40;;;;;;6253650;28;20232;-65
2022/07/23 03:11:49;;;;;;;14.10;13.00;;;24.40;87.70;;;;;;6253761;28;20232;-65
2022/07/23 03:14:52;;;;;;;14.50;13.30;;;24.40;88.00;;;;;;6244109;28;20728;-65
2022/07/23 03:17:55;;;;;;;14.97;13.77;;;24.30;88.30;;;;;;6253483;28;20709;-65
2022/07/23 03:20:58;;;;;;;14.40;13.17;;;24.30;88.50;;;;;;6253315;28;20246;-64
2022/07/23 03:24:01;;;;;;;14.83;13.53;;;24.30;88.60;;;;;;6253260;28;20232;-64
2022/07/23 03:27:06;;;;;;;13.40;12.50;;;24.30;88.90;;;;;;6253177;28;20224;-64
2022/07/23 03:30:10;;;;;;;13.40;12.30;;;24.10;88.90;;;;;;6253156;28;20228;-65
2022/07/23 03:33:13;;;;;;;13.13;11.90;;;24.10;89.00;;;;;;6253092;28;20232;-65
2022/07/23 03:36:16;;;;;;;14.37;13.37;;;24.10;89.10;;;;;;6252946;28;20224;-65
2022/07/23 03:39:19;;;;;;;14.50;13.40;;;24.10;89.60;;;;;;6253268;28;20243;-65
2022/07/23 03:42:24;;;;;;;14.60;13.40;;;24.10;89.60;;;;;;6252728;28;20232;-65
2022/07/23 03:45:27;;;;;;;13.70;12.70;;;24.10;89.60;;;;;;6252831;28;20232;-65
2022/07/23 03:48:30;;;;;;;13.27;12.37;;;24.20;89.70;;;;;;6252484;28;20611;-65
2022/07/23 03:51:33;;;;;;;13.50;12.37;;;24.20;90.20;;;;;;6252710;28;20233;-65
2022/07/23 03:54:36;;;;;;;13.20;12.20;;;24.20;89.70;;;;;;6252371;28;20224;-65
2022/07/23 03:57:41;;;;;;;13.00;12.10;;;24.10;89.60;;;;;;6252368;28;20228;-65
2022/07/23 04:00:44;;;;;;;13.77;12.57;;;24.10;89.60;;;;;;6252209;28;20224;-65
2022/07/23 04:03:47;;;;;;;12.53;11.63;;;24.10;89.70;;;;;;6252015;28;20243;-65
2022/07/23 04:06:50;;;;;;;13.27;12.27;;;24.00;90.00;;;;;;6251939;28;20564;-65
2022/07/23 04:09:54;;;;;;;13.87;12.67;;;23.90;90.10;;;;;;6252033;28;20251;-64
2022/07/23 04:12:58;;;;;;;14.13;13.13;;;24.00;90.20;;;;;;6251919;28;20228;-64
2022/07/23 04:16:02;;;;;;;12.77;11.80;;;24.00;90.30;;;;;;6251802;28;20240;-64
2022/07/23 04:19:05;;;;;;;13.50;12.30;;;24.00;90.30;;;;;;6247190;28;20247;-64
2022/07/23 04:22:09;;;;;;;13.70;12.50;;;24.00;90.30;;;;;;6251549;28;20228;-64
2022/07/23 04:25:13;;;;;;;13.60;12.70;;;23.90;90.50;;;;;;6251738;28;20228;-64
2022/07/23 04:28:18;;;;;;;14.57;13.37;;;23.90;90.60;;;;;;6251611;28;20319;-64
2022/07/23 04:31:21;;;;;;;15.23;13.93;;;23.90;90.80;;;;;;6251518;28;20250;-64
2022/07/23 04:34:26;;;;;;;13.77;12.67;;;24.00;91.00;;;;;;6251455;28;20228;-64
2022/07/23 04:37:29;;;;;;;13.80;12.70;;;24.10;91.10;;;;;;6252050;28;20196;-64
2022/07/23 04:40:32;;;;;;;14.40;13.30;;;24.20;91.10;;;;;;6251392;28;20220;-64
2022/07/23 04:43:37;;;;;;;15.77;14.43;;;24.30;91.10;;;;;;6251877;28;20209;-64
2022/07/23 04:46:40;;;;;;;15.13;13.93;;;24.40;91.10;;;;;;6251397;28;20215;-64
2022/07/23 04:49:43;;;;;;;15.53;14.33;;;24.50;91.10;;;;;;6251123;28;20307;-65
2022/07/23 04:52:46;;;;;;;16.87;15.37;;;24.50;91.00;;;;;;6251224;28;20228;-64
2022/07/23 04:55:49;;;;;;;16.80;15.60;;;24.60;91.00;;;;;;6250984;28;20228;-64
2022/07/23 04:58:54;;;;;;;15.77;14.40;;;24.60;91.00;;;;;;6251239;28;20255;-64
2022/07/23 05:01:57;;;;;;;16.17;14.77;;;24.70;91.00;;;;;;6250647;28;20239;-64
2022/07/23 05:05:00;;;;;;;16.57;15.30;;;24.80;91.00;;;;;;6251321;28;20235;-64
2022/07/23 05:08:03;;;;;;;16.80;15.40;;;24.80;90.80;;;;;;6250745;28;20238;-64
2022/07/23 05:11:07;;;;;;;17.07;15.77;;;24.90;91.00;;;;;;6251262;28;20247;-64
2022/07/23 05:14:12;;;;;;;16.97;15.77;;;25.00;91.00;;;;;;6250524;28;20238;-64
2022/07/23 05:17:15;;;;;;;17.43;16.03;;;25.10;90.80;;;;;;6250234;28;20220;-64
2022/07/23 05:20:18;;;;;;;18.60;17.20;;;25.30;90.50;;;;;;6250551;28;20238;-65
2022/07/23 05:23:21;;;;;;;18.47;17.07;;;25.40;90.30;;;;;;6246282;28;20251;-64
2022/07/23 05:26:24;;;;;;;16.83;15.60;;;25.50;90.20;;;;;;6250463;28;20228;-65
2022/07/23 05:29:29;;;;;;;17.90;16.60;;;25.60;90.10;;;;;;6250383;28;20234;-65
2022/07/23 05:32:33;;;;;;;16.63;15.20;;;25.70;90.00;;;;;;6250253;28;20240;-64
2022/07/23 05:35:36;;;;;;;17.83;16.23;;;25.90;89.70;;;;;;6250335;28;20228;-64
2022/07/23 05:38:39;;;;;;;18.47;16.97;;;25.90;89.40;;;;;;6250224;28;20227;-66
2022/07/23 05:41:42;;;;;;;18.60;17.20;;;26.00;89.10;;;;;;6250099;28;20254;-66
2022/07/23 05:44:47;;;;;;;18.47;16.87;;;26.20;88.60;;;;;;6249779;28;20238;-65
2022/07/23 05:47:50;;;;;;;19.00;17.37;;;26.40;88.00;;;;;;6250351;28;20231;-65
2022/07/23 05:50:53;;;;;;;17.40;16.20;;;26.50;87.80;;;;;;6249155;28;20232;-65
2022/07/23 05:53:56;;;;;;;16.47;15.23;;;26.60;88.00;;;;;;6250046;28;20227;-64
2022/07/23 05:57:00;;;;;;;17.37;15.50;;;26.80;86.90;;;;;;6249960;28;20231;-64
2022/07/23 06:00:06;;;;;;;19.10;17.70;;;27.00;86.70;;;;;;6250064;28;20235;-64
2022/07/23 06:03:09;;;;;;;17.40;16.00;;;27.30;85.30;;;;;;6249677;28;20232;-65
2022/07/23 06:06:12;;;;;;;18.97;17.67;;;27.70;84.20;;;;;;6250096;28;20232;-65
2022/07/23 06:09:16;;;;;;;18.60;17.00;;;28.00;82.80;;;;;;6249747;28;20239;-65
2022/07/23 06:12:19;;;;;;;19.67;18.20;;;28.50;81.70;;;;;;6250033;28;20220;-64
2022/07/23 06:15:24;;;;;;;18.47;16.80;;;29.00;79.40;;;;;;6250369;28;20224;-64
2022/07/23 06:18:27;;;;;;;19.87;18.20;;;29.30;77.90;;;;;;6249413;28;20246;-64
2022/07/23 06:21:30;;;;;;;19.53;18.03;;;29.60;76.20;;;;;;6249872;28;20234;-64
2022/07/23 06:24:51;;;;;;;18.27;16.97;;;30.10;74.80;;;;;;6249488;28;20216;-65
2022/07/23 06:27:54;;;;;;;16.95;15.82;;;30.60;73.30;;;;;;6243995;28;20250;-65
2022/07/23 06:30:59;;;;;;;16.73;15.52;;;31.10;71.40;;;;;;6263997;28;20569;-65
2022/07/23 06:34:04;;;;;;;18.15;16.65;;;31.40;69.30;;;;;;6261839;28;20235;-64
2022/07/23 06:37:07;;;;;;;17.40;16.20;;;32.00;67.50;;;;;;6253607;28;20228;-63
2022/07/23 06:40:12;;;;;;;18.05;16.85;;;32.40;66.30;;;;;;6262265;28;20239;-65
2022/07/23 06:43:15;;;;;;;18.13;16.83;;;33.10;63.40;;;;;;6270415;28;20215;-66
2022/07/23 06:46:21;;;;;;;15.57;14.55;;;33.50;61.20;;;;;;6273531;28;20230;-64
2022/07/23 06:49:24;;;;;;;16.67;15.60;;;33.80;60.00;;;;;;6278806;28;20237;-65
2022/07/23 06:52:27;;;;;;;15.98;14.85;;;34.50;57.00;;;;;;6275643;28;20228;-65
2022/07/23 06:55:31;;;;;;;23.70;21.40;;;35.00;56.70;;;;;;6264077;28;20200;-67
2022/07/23 06:58:34;;;;;;;18.10;16.52;;;35.40;55.80;;;;;;6252465;28;20555;-66
2022/07/23 07:01:38;;;;;;;16.45;15.35;;;35.70;55.30;;;;;;6259607;28;20196;-66
2022/07/23 07:04:42;;;;;;;16.42;15.13;;;36.30;53.80;;;;;;6253322;28;20314;-66
2022/07/23 07:07:45;;;;;;;16.60;15.30;;;36.70;52.70;;;;;;6253521;28;20208;-66
2022/07/23 07:10:48;;;;;;;15.00;14.00;;;37.20;50.60;;;;;;6253455;28;20239;-66
2022/07/23 07:13:51;;;;;;;13.38;12.38;;;37.50;49.50;;;;;;6253786;28;20227;-67
2022/07/23 07:16:55;;;;;;;14.07;13.02;;;37.50;47.60;;;;;;6253272;28;20220;-66
2022/07/23 07:19:58;;;;;;;14.35;13.45;;;37.30;47.40;;;;;;6253463;28;20282;-67
2022/07/23 07:23:02;;;;;;;14.57;13.57;;;36.80;48.60;;;;;;6253491;28;20224;-66
2022/07/23 07:26:05;;;;;;;14.18;13.18;;;36.40;48.90;;;;;;6253354;28;20238;-66
2022/07/23 07:29:08;;;;;;;15.38;14.07;;;36.00;49.00;;;;;;6253237;28;20232;-66
2022/07/23 07:32:13;;;;;;;14.10;13.10;;;35.90;49.00;;;;;;6253212;28;20224;-66
2022/07/23 07:35:36;;;;;;;15.00;13.93;;;35.90;49.40;;;;;;6252999;28;20547;-66
2022/07/23 07:38:39;;;;;;;15.75;14.48;;;35.90;49.70;;;;;;6251407;28;20566;-66
2022/07/23 07:41:42;;;;;;;15.60;14.50;;;36.30;49.60;;;;;;6252425;28;20653;-66
2022/07/23 07:44:45;;;;;;;15.25;14.10;;;36.60;49.30;;;;;;6260551;28;20228;-67
2022/07/23 07:47:50;;;;;;;14.82;13.75;;;36.80;49.40;;;;;;6263233;28;20280;-67
2022/07/23 07:50:53;;;;;;;14.80;13.80;;;37.60;48.70;;;;;;6255871;28;20227;-67
2022/07/23 07:53:57;;;;;;;14.40;13.57;;;38.30;47.60;;;;;;6263771;28;20241;-67
2022/07/23 07:57:01;;;;;;;14.98;13.98;;;39.30;46.20;;;;;;6258103;28;20249;-66
2022/07/23 08:00:11;;;;;;;14.05;13.15;;;39.40;44.70;;;;;;6252352;28;20236;-67
2022/07/23 08:03:16;;;;;;;13.95;13.05;;;40.00;44.00;;;;;;6252451;28;20266;-67
2022/07/23 08:06:19;;;;;;;14.23;13.38;;;40.10;43.60;;;;;;6257983;28;20306;-66
2022/07/23 08:09:23;;;;;;;12.48;11.68;;;39.90;43.40;;;;;;6260135;28;20317;-67
2022/07/23 08:12:26;;;;;;;12.13;11.32;;;39.60;42.60;;;;;;6252071;28;20230;-66
2022/07/23 08:15:30;;;;;;;12.63;11.90;;;39.40;42.20;;;;;;6252117;28;20523;-66
2022/07/23 08:18:35;;;;;;;13.60;12.70;;;39.20;41.60;;;;;;6258878;28;20238;-66
2022/07/23 08:21:38;;;;;;;11.77;10.70;;;39.20;43.30;;;;;;6268456;28;20954;-66
2022/07/23 08:24:41;;;;;;;11.80;10.98;;;39.00;41.80;;;;;;6259482;28;20241;-66
2022/07/23 08:27:44;;;;;;;10.93;10.23;;;39.00;42.20;;;;;;6251637;28;20234;-66
2022/07/23 08:30:47;;;;;;;10.90;10.10;;;39.00;41.80;;;;;;6259909;28;20227;-66
2022/07/23 08:33:52;;;;;;;11.07;10.38;;;39.10;40.20;;;;;;6254851;28;20246;-66
2022/07/23 08:36:55;;;;;;;12.80;11.60;;;39.00;39.70;;;;;;6252989;28;20220;-66
2022/07/23 08:39:58;;;;;;;12.80;11.90;;;38.90;41.00;;;;;;6256189;28;20227;-66
2022/07/23 08:43:07;;;;;;;13.30;12.50;;;38.70;42.10;;;;;;6255726;28;20672;-67
2022/07/23 08:46:11;;;;;;;12.68;11.93;;;38.70;42.90;;;;;;6263213;28;20246;-66
2022/07/23 08:49:15;;;;;;;12.63;11.75;;;38.80;42.50;;;;;;6255636;28;20223;-66
2022/07/23 08:52:19;;;;;;;12.15;11.20;;;39.00;42.20;;;;;;6264117;28;20226;-66
2022/07/23 08:55:29;;;;;;;11.18;10.27;;;39.00;40.90;;;;;;6260800;28;20213;-66
2022/07/23 08:58:33;;;;;;;8.38;7.88;;;39.00;39.30;;;;;;6267022;28;20257;-65
2022/07/23 09:01:37;;;;;;;10.13;9.43;;;38.90;38.10;;;;;;6264323;28;20645;-67
2022/07/23 09:04:41;;;;;;;10.90;10.15;;;38.70;38.90;;;;;;6264014;28;20191;-66
2022/07/23 09:08:06;;;;;;;10.35;9.75;;;38.50;39.40;;;;;;6268767;28;20206;-66
2022/07/23 09:11:10;;;;;;;12.65;11.85;;;38.50;39.70;;;;;;6269773;28;20231;-67
2022/07/23 09:14:13;;;;;;;12.48;11.60;;;38.30;41.80;;;;;;6226155;28;20272;-67
2022/07/23 09:17:19;;;;;;;13.88;12.88;;;37.80;42.60;;;;;;6226176;28;20224;-67
2022/07/23 09:20:23;;;;;;;13.55;12.45;;;37.30;43.80;;;;;;6226042;28;20236;-68
2022/07/23 09:23:39;;;;;;;14.15;12.93;;;37.00;44.20;;;;;;6226017;28;20232;-66
2022/07/23 09:26:43;;;;;;;14.50;13.60;;;36.90;44.70;;;;;;6242746;28;20571;-66
2022/07/23 09:29:57;;;;;;;15.52;14.13;;;36.80;45.30;;;;;;6259197;28;20223;-66
2022/07/23 09:33:08;;;;;;;15.50;14.40;;;36.50;45.30;;;;;;6263801;28;20223;-67
2022/07/23 09:36:13;;;;;;;14.73;13.70;;;36.40;45.80;;;;;;6251620;28;20246;-67
2022/07/23 09:39:25;;;;;;;14.55;13.50;;;36.30;46.60;;;;;;6253943;28;20364;-67
2022/07/23 09:42:28;;;;;;;14.50;13.43;;;36.20;46.90;;;;;;6250298;28;20243;-67
2022/07/23 09:45:31;;;;;;;14.10;13.20;;;36.20;46.90;;;;;;6268981;28;20223;-67
2022/07/23 09:48:34;;;;;;;14.77;13.75;;;36.10;46.80;;;;;;6260468;28;20228;-67
2022/07/23 09:51:45;;;;;;;10.23;9.43;;;36.00;47.70;;;;;;6254417;28;20231;-68
2022/07/23 09:55:00;;;;;;;8.77;8.18;;;35.70;43.70;;;;;;6249776;28;20258;-68
2022/07/23 09:58:04;;;;;;;8.63;7.93;;;35.40;42.70;;;;;;6250048;28;20228;-67
2022/07/23 10:01:07;;;;;;;8.70;8.15;;;35.40;42.50;;;;;;6249761;28;20235;-67
2022/07/23 10:04:11;;;;;;;9.05;8.45;;;35.60;42.00;;;;;;6249263;28;20246;-67
2022/07/23 10:07:18;;;;;;;8.60;8.00;;;35.80;42.30;;;;;;6249711;28;20241;-67
2022/07/23 10:10:23;;;;;;;10.68;8.45;;;35.90;41.90;;;;;;6249693;28;20236;-67
2022/07/23 10:16:48;;;;;;;8.95;8.25;;;35.80;43.30;;;;;;6250068;28;20329;-68
2022/07/23 10:19:51;;;;;;;7.93;7.13;;;35.80;42.50;;;;;;6249407;28;20235;-68
2022/07/23 10:23:05;;;;;;;7.68;7.07;;;35.80;42.10;;;;;;6249921;28;20229;-68
2022/07/23 10:26:17;;;;;;;8.95;8.25;;;36.00;41.80;;;;;;6249849;28;20224;-68
2022/07/23 10:29:30;;;;;;;7.32;6.82;;;36.10;41.70;;;;;;6249728;28;20557;-68
2022/07/23 10:32:45;;;;;;;7.80;7.30;;;36.30;42.20;;;;;;6249789;28;20238;-68
2022/07/23 10:35:52;;;;;;;8.05;7.55;;;36.50;41.10;;;;;;6249830;28;20231;-67
2022/07/23 10:39:05;;;;;;;9.82;9.13;;;36.70;40.50;;;;;;6240909;28;20235;-67
2022/07/23 10:42:12;;;;;;;10.20;9.50;;;36.90;41.30;;;;;;6246628;28;20232;-66
2022/07/23 10:45:30;;;;;;;11.55;10.82;;;36.90;42.20;;;;;;6246961;28;20650;-68
2022/07/23 10:48:34;;;;;;;10.07;9.38;;;36.80;42.80;;;;;;6247443;28;20246;-67
2022/07/23 10:51:39;;;;;;;11.32;10.60;;;36.60;42.80;;;;;;6247746;28;20240;-67
2022/07/23 10:54:45;;;;;;;12.55;11.68;;;36.60;43.10;;;;;;6247569;28;20602;-68
2022/07/23 10:57:50;;;;;;;12.07;11.27;;;36.50;44.10;;;;;;6247183;28;20642;-68
2022/07/23 11:00:53;;;;;;;12.18;11.27;;;36.70;44.50;;;;;;6247653;28;20291;-68
2022/07/23 11:03:58;;;;;;;11.43;10.65;;;36.90;44.20;;;;;;6247483;28;20555;-67
2022/07/23 11:07:11;;;;;;;13.05;12.15;;;37.10;44.50;;;;;;6248062;28;20624;-68
2022/07/23 11:10:34;;;;;;;12.68;11.88;;;37.10;43.90;;;;;;6248496;28;20234;-69
2022/07/23 11:13:42;;;;;;;11.85;11.13;;;37.10;43.80;;;;;;6248800;28;20231;-68
2022/07/23 11:16:48;;;;;;;10.95;10.05;;;37.20;43.70;;;;;;6253627;28;20204;-68
2022/07/23 11:20:15;;;;;;;11.68;10.93;;;37.10;42.40;;;;;;6252687;28;20668;-69
2022/07/23 11:23:18;;;;;;;10.43;9.70;;;36.90;42.00;;;;;;6253667;28;20317;-69
2022/07/23 11:26:46;;;;;;;10.38;9.77;;;36.80;41.70;;;;;;6253860;28;20224;-70
2022/07/23 11:29:51;;;;;;;9.38;8.68;;;36.70;42.00;;;;;;6253632;28;20232;-69
2022/07/23 11:32:55;;;;;;;11.13;10.32;;;36.80;41.60;;;;;;6252508;28;20228;-68
2022/07/23 11:36:03;;;;;;;10.25;9.65;;;36.90;42.50;;;;;;6252447;28;20231;-69
2022/07/23 11:39:07;;;;;;;10.38;9.75;;;36.90;41.80;;;;;;6252596;28;20562;-68
2022/07/23 11:42:19;;;;;;;10.55;9.85;;;36.90;41.90;;;;;;6243150;28;20661;-68
2022/07/23 11:45:23;;;;;;;9.80;9.10;;;36.90;41.20;;;;;;6249169;28;20239;-68
2022/07/23 11:48:28;;;;;;;10.52;9.63;;;36.90;41.00;;;;;;6252296;28;20235;-68
2022/07/23 11:51:32;;;;;;;10.35;9.68;;;37.00;41.60;;;;;;6252340;28;20232;-68
2022/07/23 11:54:38;;;;;;;11.02;10.32;;;36.90;41.30;;;;;;6253126;28;20234;-68
2022/07/23 11:57:44;;;;;;;10.68;9.98;;;36.80;41.20;;;;;;6252356;28;20696;-68
2022/07/23 12:00:48;;;;;;;11.00;10.30;;;36.90;41.20;;;;;;6252352;28;20246;-68
2022/07/23 12:03:52;;;;;;;11.25;10.55;;;37.00;41.00;;;;;;6252791;28;20224;-68
2022/07/23 12:06:55;;;;;;;11.63;10.57;;;37.10;41.10;;;;;;6252689;28;20223;-68
2022/07/23 12:10:00;;;;;;;10.60;9.90;;;37.30;41.20;;;;;;6252720;28;20235;-69
2022/07/23 12:13:06;;;;;;;9.07;8.48;;;37.40;40.40;;;;;;6252886;28;20239;-71
2022/07/23 12:16:10;;;;;;;10.10;9.40;;;37.40;39.60;;;;;;6252630;28;20246;-69
2022/07/23 12:19:13;;;;;;;10.88;9.90;;;37.20;39.60;;;;;;6251693;28;20246;-69
2022/07/23 12:22:17;;;;;;;11.38;10.68;;;37.10;39.40;;;;;;6252059;28;20227;-69
2022/07/23 12:25:21;;;;;;;11.10;10.30;;;37.20;39.20;;;;;;6251255;28;20234;-68
2022/07/23 12:28:32;;;;;;;11.13;10.32;;;37.20;39.00;;;;;;6251677;28;20224;-68
2022/07/23 12:31:37;;;;;;;11.55;10.75;;;37.10;38.40;;;;;;6251668;28;20579;-68
2022/07/23 12:34:40;;;;;;;11.27;10.25;;;37.10;37.70;;;;;;6251726;28;20250;-68
2022/07/23 12:37:45;;;;;;;11.43;10.57;;;37.10;38.80;;;;;;6251835;28;20531;-69
2022/07/23 12:40:50;;;;;;;11.60;10.80;;;37.30;38.70;;;;;;6249148;28;20231;-68
2022/07/23 12:43:54;;;;;;;10.77;10.07;;;37.30;38.60;;;;;;6246081;28;20227;-68
2022/07/23 12:46:58;;;;;;;11.23;10.43;;;37.30;38.20;;;;;;6246895;28;20231;-68
2022/07/23 12:50:02;;;;;;;11.20;10.40;;;37.20;37.70;;;;;;6251274;28;20228;-68
2022/07/23 12:53:09;;;;;;;11.63;10.63;;;37.20;39.00;;;;;;6249483;28;20257;-68
2022/07/23 12:56:29;;;;;;;11.68;10.95;;;37.30;38.80;;;;;;6250949;28;20230;-68
2022/07/23 12:59:34;;;;;;;11.70;10.80;;;37.40;37.60;;;;;;6249831;28;20223;-67
2022/07/23 13:02:47;;;;;;;10.82;10.02;;;37.20;37.30;;;;;;6251069;28;20372;-67
2022/07/23 13:05:50;;;;;;;11.88;11.13;;;37.10;37.70;;;;;;6250799;28;20220;-68
2022/07/23 13:08:54;;;;;;;11.52;10.82;;;37.10;37.60;;;;;;6251158;28;20227;-67
2022/07/23 13:11:58;;;;;;;12.10;11.05;;;37.10;38.00;;;;;;6254656;28;20228;-68
2022/07/23 13:15:04;;;;;;;11.32;10.52;;;37.30;38.20;;;;;;6255955;28;20669;-67
2022/07/23 13:18:07;;;;;;;12.02;11.23;;;37.30;37.70;;;;;;6252645;28;20219;-66
2022/07/23 13:21:10;;;;;;;11.85;11.05;;;37.40;37.70;;;;;;6255768;28;20234;-68
2022/07/23 13:24:14;;;;;;;11.77;10.98;;;37.40;37.40;;;;;;6253136;28;20281;-68
2022/07/23 13:27:17;;;;;;;12.13;11.32;;;37.30;37.70;;;;;;6255150;28;20231;-67
2022/07/23 13:30:23;;;;;;;12.38;11.52;;;37.30;37.60;;;;;;6253370;28;20239;-68
2022/07/23 13:33:27;;;;;;;11.32;10.63;;;37.20;37.10;;;;;;6259754;28;20282;-67
2022/07/23 13:36:30;;;;;;;11.63;10.93;;;37.00;37.30;;;;;;6266813;28;20242;-67
2022/07/23 13:39:33;;;;;;;11.70;10.90;;;36.90;37.60;;;;;;6254276;28;20247;-67
2022/07/23 13:42:40;;;;;;;12.05;11.15;;;36.90;37.90;;;;;;6250230;28;20224;-68
2022/07/23 13:45:45;;;;;;;11.18;10.38;;;37.00;37.80;;;;;;6250353;28;20259;-66
2022/07/23 13:48:49;;;;;;;10.63;9.82;;;37.10;37.80;;;;;;6244668;28;20250;-68
2022/07/23 13:51:53;;;;;;;11.32;10.63;;;37.10;37.50;;;;;;6249511;28;20584;-68
2022/07/23 13:54:56;;;;;;;10.68;10.07;;;37.00;37.10;;;;;;6249123;28;20274;-67
2022/07/23 13:58:00;;;;;;;10.15;9.45;;;37.10;37.50;;;;;;6248582;28;20227;-68
2022/07/23 14:01:05;;;;;;;10.10;9.50;;;37.10;37.70;;;;;;6248984;28;20227;-67
2022/07/23 14:04:08;;;;;;;11.43;10.60;;;37.10;36.70;;;;;;6248906;28;20551;-68
2022/07/23 14:07:11;;;;;;;9.60;9.00;;;37.10;37.30;;;;;;6249179;28;20216;-69
2022/07/23 14:10:15;;;;;;;10.30;9.60;;;37.00;36.80;;;;;;6248924;28;20246;-68
2022/07/23 14:13:18;;;;;;;10.65;10.05;;;36.90;37.10;;;;;;6249516;28;20674;-68
2022/07/23 14:16:25;;;;;;;9.52;8.93;;;36.90;37.10;;;;;;6247065;28;20303;-69
2022/07/23 14:19:29;;;;;;;9.90;9.30;;;36.90;37.30;;;;;;6273896;28;20242;-68
2022/07/23 14:22:33;;;;;;;10.90;10.25;;;37.10;37.40;;;;;;6260457;28;20215;-68
2022/07/23 14:25:38;;;;;;;10.20;9.50;;;37.10;37.50;;;;;;6249752;28;20211;-69
2022/07/23 14:28:41;;;;;;;10.82;9.98;;;37.10;37.40;;;;;;6262822;28;20237;-68
2022/07/23 14:31:46;;;;;;;9.27;8.68;;;37.30;37.10;;;;;;6260939;28;20614;-70
2022/07/23 14:34:49;;;;;;;10.80;10.10;;;37.40;37.60;;;;;;6261327;28;20223;-68
2022/07/23 14:37:53;;;;;;;11.13;10.32;;;37.30;37.50;;;;;;6265536;28;20250;-69
2022/07/23 14:40:57;;;;;;;10.82;9.85;;;37.30;36.70;;;;;;6274483;28;20242;-68
2022/07/23 14:44:02;;;;;;;10.63;9.70;;;37.30;37.30;;;;;;6275004;28;20372;-67
2022/07/23 14:47:09;;;;;;;10.32;9.65;;;37.20;37.20;;;;;;6274397;28;20721;-67
2022/07/23 14:50:12;;;;;;;11.40;10.68;;;37.10;37.70;;;;;;6258108;28;20582;-67
2022/07/23 14:53:15;;;;;;;10.75;9.82;;;36.90;37.00;;;;;;6256893;28;20532;-67
2022/07/23 14:56:25;;;;;;;11.00;10.27;;;36.60;37.50;;;;;;6256052;28;20224;-67
2022/07/23 14:59:28;;;;;;;9.50;8.90;;;36.40;37.70;;;;;;6253280;28;20231;-64
2022/07/23 15:02:33;;;;;;;11.18;10.48;;;36.10;38.30;;;;;;6253346;28;20231;-65
2022/07/23 15:05:37;;;;;;;10.45;9.75;;;36.10;38.50;;;;;;6253579;28;20251;-65
2022/07/23 15:08:40;;;;;;;11.10;10.30;;;36.10;38.20;;;;;;6253748;28;20666;-67
2022/07/23 15:11:43;;;;;;;11.32;10.52;;;36.10;38.20;;;;;;6253458;28;20243;-66
2022/07/23 15:14:46;;;;;;;11.57;10.75;;;36.20;38.10;;;;;;6253814;28;20232;-65
2022/07/23 15:17:51;;;;;;;10.93;10.23;;;36.10;38.20;;;;;;6253581;28;20231;-65
2022/07/23 15:20:54;;;;;;;11.05;10.32;;;36.10;39.20;;;;;;6252822;28;20697;-66
2022/07/23 15:23:58;;;;;;;10.35;9.65;;;36.20;39.00;;;;;;6253654;28;20234;-65
2022/07/23 15:27:02;;;;;;;10.20;9.40;;;36.10;39.40;;;;;;6253313;28;20646;-65
2022/07/23 15:30:08;;;;;;;10.43;9.77;;;36.30;39.60;;;;;;6250643;28;20231;-67
2022/07/23 15:33:12;;;;;;;11.65;10.85;;;36.50;39.10;;;;;;6247290;28;20716;-67
2022/07/23 15:36:23;;;;;;;10.90;10.20;;;36.60;38.30;;;;;;6251835;28;20227;-66
2022/07/23 15:39:26;;;;;;;10.90;10.00;;;36.70;38.00;;;;;;6251677;28;20572;-67
2022/07/23 15:42:31;;;;;;;10.63;9.82;;;36.60;38.10;;;;;;6251978;28;20310;-66
2022/07/23 15:45:34;;;;;;;10.60;9.63;;;36.60;38.30;;;;;;6251854;28;20232;-66